createdAt,value
2017-10-22T12:23:01.959Z,1004.10
2017-10-22T12:24:02.038Z,1004.06
2017-10-22T12:25:56.389Z,1004.04
2017-10-22T12:26:55.505Z,1004.07
2017-10-22T12:27:55.612Z,1004.03
2017-10-22T12:28:56.398Z,1004.03
2017-10-22T12:29:55.629Z,1004.03
2017-10-22T12:30:55.536Z,1003.98
2017-10-22T12:31:55.637Z,1003.98
2017-10-22T12:32:55.558Z,1003.96
2017-10-22T12:33:55.659Z,1004.02
2017-10-22T12:34:55.568Z,1004.09
2017-10-22T12:35:55.669Z,1004.10
2017-10-22T12:36:55.579Z,1004.13
2017-10-22T12:37:55.687Z,1004.09
2017-10-22T12:38:55.598Z,1004.09
2017-10-22T12:39:55.603Z,1004.12
2017-10-22T12:40:55.705Z,1004.16
2017-10-22T12:41:55.620Z,1004.12
2017-10-22T12:42:55.725Z,1004.14
2017-10-22T12:43:55.636Z,1004.17
2017-10-22T12:44:55.732Z,1004.20
2017-10-22T12:45:55.656Z,1004.19
2017-10-22T12:46:55.737Z,1004.19
2017-10-22T12:47:55.662Z,1004.17
2017-10-22T12:48:55.758Z,1004.16
2017-10-22T12:49:55.684Z,1004.17
2017-10-22T12:50:55.773Z,1004.21
2017-10-22T12:51:55.698Z,1004.25
2017-10-22T12:52:55.783Z,1004.20
2017-10-22T12:53:55.723Z,1004.23
2017-10-22T12:54:55.715Z,1004.21
2017-10-22T12:55:55.726Z,1004.25
2017-10-22T12:56:55.732Z,1004.23
2017-10-22T12:57:55.820Z,1004.23
2017-10-22T12:58:55.746Z,1004.25
2017-10-22T12:59:55.760Z,1004.21
2017-10-22T13:00:55.765Z,1004.20
2017-10-22T13:01:55.776Z,1004.20
2017-10-22T13:02:55.777Z,1004.21
2017-10-22T13:03:55.793Z,1004.22
2017-10-22T13:04:55.791Z,1004.17
2017-10-22T13:05:56.896Z,1004.23
2017-10-22T13:06:55.807Z,1004.24
2017-10-22T13:07:55.886Z,1004.20
2017-10-22T13:08:55.821Z,1004.21
2017-10-22T13:09:55.901Z,1004.23
2017-10-22T13:10:55.838Z,1004.22
2017-10-22T13:11:55.942Z,1004.25
2017-10-22T13:12:55.867Z,1004.24
2017-10-22T13:13:55.931Z,1004.21
2017-10-22T13:14:55.872Z,1004.34
2017-10-22T13:15:55.872Z,1004.23
2017-10-22T13:16:55.948Z,1004.24
2017-10-22T13:17:55.888Z,1004.25
2017-10-22T13:18:55.959Z,1004.28
2017-10-22T13:19:55.906Z,1004.25
2017-10-22T13:20:55.973Z,1004.23
2017-10-22T13:21:55.922Z,1004.32
2017-10-22T13:22:55.995Z,1004.34
2017-10-22T13:23:55.935Z,1004.32
2017-10-22T13:24:55.948Z,1004.29
2017-10-22T13:25:56.009Z,1004.32
2017-10-22T13:26:55.966Z,1004.34
2017-10-22T13:27:56.022Z,1004.32
2017-10-22T13:28:55.985Z,1004.32
2017-10-22T13:29:56.033Z,1004.36
2017-10-22T13:30:55.990Z,1004.36
2017-10-22T13:31:56.051Z,1004.37
2017-10-22T13:32:56.007Z,1004.39
2017-10-22T13:33:56.062Z,1004.38
2017-10-22T13:34:56.018Z,1004.37
2017-10-22T13:35:56.075Z,1004.38
2017-10-22T13:36:56.031Z,1004.38
2017-10-22T13:37:56.087Z,1004.35
2017-10-22T13:38:56.050Z,1004.37
2017-10-22T13:39:56.055Z,1004.38
2017-10-22T13:40:56.110Z,1004.39
2017-10-22T13:41:56.068Z,1004.42
2017-10-22T13:42:56.125Z,1004.43
2017-10-22T13:43:56.083Z,1004.42
2017-10-22T13:44:56.137Z,1004.39
2017-10-22T13:45:56.095Z,1004.47
2017-10-22T13:46:56.149Z,1004.52
2017-10-22T13:47:56.110Z,1004.51
2017-10-22T13:48:56.166Z,1004.52
2017-10-22T13:49:56.132Z,1004.55
2017-10-22T13:50:56.178Z,1004.63
2017-10-22T13:51:56.163Z,1004.56
2017-10-22T13:52:56.188Z,1004.46
2017-10-22T13:53:56.159Z,1004.49
2017-10-22T13:54:56.201Z,1004.54
2017-10-22T13:55:56.182Z,1004.51
2017-10-22T13:56:56.230Z,1004.51
2017-10-22T13:57:56.196Z,1004.52
2017-10-22T13:58:56.229Z,1004.54
2017-10-22T13:59:56.225Z,1004.56
2017-10-22T14:00:58.289Z,1004.57
2017-10-22T14:01:56.244Z,1004.54
2017-10-22T14:02:56.255Z,1004.61
2017-10-22T14:03:56.237Z,1004.59
2017-10-22T14:04:56.276Z,1004.62
2017-10-22T14:05:56.255Z,1004.68
2017-10-22T14:06:56.287Z,1004.64
2017-10-22T14:07:56.261Z,1004.64
2017-10-22T14:08:56.303Z,1004.66
2017-10-22T14:09:56.281Z,1004.69
2017-10-22T14:10:56.318Z,1004.71
2017-10-22T14:11:56.294Z,1004.70
2017-10-22T14:12:56.303Z,1004.71
2017-10-22T14:14:01.966Z,1004.73
2017-10-22T14:14:56.311Z,1004.71
2017-10-22T14:15:58.393Z,1004.74
2017-10-22T14:16:56.328Z,1004.75
2017-10-22T14:17:56.362Z,1004.74
2017-10-22T14:18:56.345Z,1004.73
2017-10-22T14:19:56.373Z,1004.78
2017-10-22T14:20:56.364Z,1004.81
2017-10-22T14:21:56.366Z,1004.79
2017-10-22T14:22:56.399Z,1004.82
2017-10-22T14:23:56.380Z,1004.82
2017-10-22T14:24:56.415Z,1004.83
2017-10-22T14:25:56.398Z,1004.79
2017-10-22T14:26:56.422Z,1004.81
2017-10-22T14:27:56.410Z,1004.89
2017-10-22T14:28:57.460Z,1004.80
2017-10-22T14:29:56.424Z,1004.80
2017-10-22T14:30:56.460Z,1004.83
2017-10-22T14:31:56.437Z,1004.85
2017-10-22T14:32:56.472Z,1004.88
2017-10-22T14:33:56.456Z,1004.96
2017-10-22T14:34:56.584Z,1004.93
2017-10-22T14:35:56.471Z,1004.93
2017-10-22T14:36:56.483Z,1004.97
2017-10-22T14:37:56.623Z,1004.96
2017-10-22T14:38:56.510Z,1004.96
2017-10-22T14:39:56.614Z,1004.95
2017-10-22T14:40:56.514Z,1005.03
2017-10-22T14:41:57.550Z,1005.07
2017-10-22T14:42:56.523Z,1005.03
2017-10-22T14:43:56.641Z,1005.09
2017-10-22T14:44:56.542Z,1005.06
2017-10-22T14:45:56.655Z,1005.05
2017-10-22T14:46:56.552Z,1005.01
2017-10-22T14:47:56.665Z,1005.06
2017-10-22T14:48:56.570Z,1005.08
2017-10-22T14:49:56.696Z,1005.06
2017-10-22T14:50:56.597Z,1005.10
2017-10-22T14:51:56.591Z,1005.04
2017-10-22T14:52:56.702Z,1005.11
2017-10-22T14:53:56.619Z,1005.09
2017-10-22T14:54:56.711Z,1005.11
2017-10-22T14:55:56.621Z,1005.12
2017-10-22T14:56:56.726Z,1005.11
2017-10-22T14:57:56.637Z,1005.09
2017-10-22T14:58:56.746Z,1005.09
2017-10-22T14:59:56.656Z,1005.11
2017-10-22T15:00:56.756Z,1005.12
2017-10-22T15:01:56.671Z,1005.14
2017-10-22T15:02:56.771Z,1005.10
2017-10-22T15:03:56.694Z,1005.15
2017-10-22T15:04:56.788Z,1005.13
2017-10-22T15:05:56.698Z,1005.17
2017-10-22T15:06:56.797Z,1005.21
2017-10-22T15:07:56.711Z,1005.18
2017-10-22T15:08:56.808Z,1005.18
2017-10-22T15:09:56.730Z,1005.18
2017-10-22T15:10:56.823Z,1005.22
2017-10-22T15:11:56.743Z,1005.21
2017-10-22T15:12:56.840Z,1005.27
2017-10-22T15:13:56.760Z,1005.29
2017-10-22T15:14:56.764Z,1005.26
2017-10-22T15:15:56.772Z,1005.27
2017-10-22T15:16:56.876Z,1005.24
2017-10-22T15:17:56.839Z,1005.32
2017-10-22T15:18:56.879Z,1005.27
2017-10-22T15:19:56.804Z,1005.31
2017-10-22T15:20:56.896Z,1005.27
2017-10-22T15:21:56.830Z,1005.32
2017-10-22T15:22:56.825Z,1005.28
2017-10-22T15:23:56.834Z,1005.34
2017-10-22T15:24:56.916Z,1005.29
2017-10-22T15:25:56.858Z,1005.34
2017-10-22T15:26:56.856Z,1005.35
2017-10-22T15:27:56.860Z,1005.35
2017-10-22T15:28:56.943Z,1005.32
2017-10-22T15:29:56.882Z,1005.40
2017-10-22T15:30:56.959Z,1005.43
2017-10-22T15:31:56.892Z,1005.36
2017-10-22T15:32:56.979Z,1005.44
2017-10-22T15:33:56.910Z,1005.46
2017-10-22T15:34:56.988Z,1005.40
2017-10-22T15:35:56.969Z,1005.41
2017-10-22T15:36:57.013Z,1005.45
2017-10-22T15:37:56.937Z,1005.50
2017-10-22T15:38:57.016Z,1005.50
2017-10-22T15:39:56.955Z,1005.53
2017-10-22T15:40:57.024Z,1005.54
2017-10-22T15:41:56.970Z,1005.57
2017-10-22T15:42:57.043Z,1005.54
2017-10-22T15:43:56.989Z,1005.53
2017-10-22T15:44:57.058Z,1005.55
2017-10-22T15:45:56.999Z,1005.56
2017-10-22T15:46:57.004Z,1005.60
2017-10-22T15:47:57.021Z,1005.62
2017-10-22T15:48:57.080Z,1005.61
2017-10-22T15:49:57.028Z,1005.71
2017-10-22T15:50:57.097Z,1005.58
2017-10-22T15:51:57.040Z,1005.68
2017-10-22T15:52:58.133Z,1005.66
2017-10-22T15:53:57.057Z,1005.63
2017-10-22T15:54:57.062Z,1005.73
2017-10-22T15:55:57.072Z,1005.69
2017-10-22T15:56:57.135Z,1005.69
2017-10-22T15:57:57.085Z,1005.72
2017-10-22T15:58:57.148Z,1005.76
2017-10-22T15:59:57.109Z,1005.75
2017-10-22T16:00:57.111Z,1005.71
2017-10-22T16:01:57.123Z,1005.79
2017-10-22T16:02:57.175Z,1005.81
2017-10-22T16:03:57.132Z,1005.75
2017-10-22T16:04:57.193Z,1005.80
2017-10-22T16:05:57.144Z,1005.84
2017-10-22T16:06:57.202Z,1005.84
2017-10-22T16:07:57.159Z,1005.79
2017-10-22T16:08:57.219Z,1005.79
2017-10-22T16:09:57.173Z,1005.82
2017-10-22T16:10:57.181Z,1005.81
2017-10-22T16:11:57.238Z,1005.83
2017-10-22T16:12:57.206Z,1005.78
2017-10-22T16:13:57.252Z,1005.85
2017-10-22T16:14:57.215Z,1005.83
2017-10-22T16:15:57.265Z,1005.78
2017-10-22T16:16:57.231Z,1005.81
2017-10-22T16:17:57.278Z,1005.82
2017-10-22T16:18:57.245Z,1005.90
2017-10-22T16:19:57.251Z,1005.91
2017-10-22T16:20:57.297Z,1005.85
2017-10-22T16:21:57.264Z,1005.92
2017-10-22T16:22:57.326Z,1005.91
2017-10-22T16:23:57.280Z,1005.95
2017-10-22T16:24:57.325Z,1005.91
2017-10-22T16:25:57.305Z,1005.95
2017-10-22T16:26:57.302Z,1005.95
2017-10-22T16:27:57.309Z,1005.99
2017-10-22T16:28:57.317Z,1005.94
2017-10-22T16:29:57.324Z,1005.98
2017-10-22T16:30:57.378Z,1006.00
2017-10-22T16:31:57.339Z,1005.98
2017-10-22T16:32:57.380Z,1006.02
2017-10-22T16:33:57.357Z,1006.02
2017-10-22T16:34:57.390Z,1006.07
2017-10-22T16:35:57.373Z,1006.04
2017-10-22T16:36:57.408Z,1006.03
2017-10-22T16:37:57.385Z,1006.04
2017-10-22T16:38:57.420Z,1006.11
2017-10-22T16:39:57.401Z,1006.11
2017-10-22T16:40:57.433Z,1006.08
2017-10-22T16:41:57.413Z,1006.06
2017-10-22T16:42:57.423Z,1006.09
2017-10-22T16:43:57.428Z,1006.14
2017-10-22T16:44:57.539Z,1006.13
2017-10-22T16:45:57.458Z,1006.12
2017-10-22T16:46:57.455Z,1006.15
2017-10-22T16:47:57.486Z,1006.13
2017-10-22T16:48:57.466Z,1006.14
2017-10-22T16:49:57.503Z,1006.15
2017-10-22T16:50:57.480Z,1006.14
2017-10-22T16:51:57.612Z,1006.15
2017-10-22T16:52:57.494Z,1006.15
2017-10-22T16:53:58.547Z,1006.14
2017-10-22T16:54:57.509Z,1006.13
2017-10-22T16:55:57.537Z,1006.15
2017-10-22T16:56:57.528Z,1006.13
2017-10-22T16:57:57.658Z,1006.15
2017-10-22T16:58:57.541Z,1006.18
2017-10-22T16:59:57.562Z,1006.17
2017-10-22T17:00:57.557Z,1006.16
2017-10-22T17:01:57.581Z,1006.17
2017-10-22T17:02:57.568Z,1006.20
2017-10-22T17:03:57.595Z,1006.17
2017-10-22T17:04:57.583Z,1006.22
2017-10-22T17:05:57.607Z,1006.21
2017-10-22T17:06:57.599Z,1006.20
2017-10-22T17:07:57.607Z,1006.21
2017-10-22T17:08:57.726Z,1006.28
2017-10-22T17:09:57.619Z,1006.23
2017-10-22T17:10:58.126Z,1006.27
2017-10-22T17:11:57.637Z,1006.28
2017-10-22T17:12:57.857Z,1006.26
2017-10-22T17:13:57.657Z,1006.28
2017-10-22T17:14:57.769Z,1006.30
2017-10-22T17:15:57.668Z,1006.32
2017-10-22T17:16:57.786Z,1006.34
2017-10-22T17:17:57.689Z,1006.39
2017-10-22T17:18:57.795Z,1006.39
2017-10-22T17:19:57.694Z,1006.39
2017-10-22T17:20:57.812Z,1006.38
2017-10-22T17:21:57.715Z,1006.40
2017-10-22T17:22:57.823Z,1006.39
2017-10-22T17:23:57.720Z,1006.38
2017-10-22T17:24:57.836Z,1006.38
2017-10-22T17:25:57.740Z,1006.42
2017-10-22T17:26:57.857Z,1006.40
2017-10-22T17:27:57.750Z,1006.45
2017-10-22T17:28:57.864Z,1006.49
2017-10-22T17:29:57.765Z,1006.51
2017-10-22T17:30:57.890Z,1006.47
2017-10-22T17:31:57.789Z,1006.48
2017-10-22T17:32:57.895Z,1006.53
2017-10-22T17:33:57.811Z,1006.50
2017-10-22T17:34:57.904Z,1006.48
2017-10-22T17:35:57.811Z,1006.47
2017-10-22T17:36:57.918Z,1006.53
2017-10-22T17:37:57.827Z,1006.50
2017-10-22T17:38:57.837Z,1006.48
2017-10-22T17:39:57.839Z,1006.51
2017-10-22T17:40:57.845Z,1006.53
2017-10-22T17:41:57.858Z,1006.53
2017-10-22T17:42:57.860Z,1006.55
2017-10-22T17:43:57.968Z,1006.58
2017-10-22T17:44:57.878Z,1006.62
2017-10-22T17:45:57.983Z,1006.59
2017-10-22T17:46:57.889Z,1006.59
2017-10-22T17:47:57.897Z,1006.66
2017-10-22T17:48:57.904Z,1006.61
2017-10-22T17:49:57.917Z,1006.64
2017-10-22T17:50:57.916Z,1006.67
2017-10-22T17:51:57.924Z,1006.65
2017-10-22T17:52:57.931Z,1006.67
2017-10-22T17:53:57.951Z,1006.70
2017-10-22T17:54:58.041Z,1006.69
2017-10-22T17:55:57.960Z,1006.72
2017-10-22T17:56:57.965Z,1006.72
2017-10-22T17:57:58.070Z,1006.69
2017-10-22T17:58:57.985Z,1006.71
2017-10-22T17:59:57.985Z,1006.66
2017-10-22T18:00:57.995Z,1006.71
2017-10-22T18:01:58.088Z,1006.76
2017-10-22T18:02:58.006Z,1006.74
2017-10-22T18:03:58.101Z,1006.75
2017-10-22T18:04:58.020Z,1006.74
2017-10-22T18:05:58.114Z,1006.76
2017-10-22T18:06:58.039Z,1006.81
2017-10-22T18:07:58.127Z,1006.79
2017-10-22T18:08:58.052Z,1006.78
2017-10-22T18:09:58.143Z,1006.76
2017-10-22T18:10:58.066Z,1006.79
2017-10-22T18:11:58.071Z,1006.81
2017-10-22T18:12:58.162Z,1006.74
2017-10-22T18:13:58.089Z,1006.80
2017-10-22T18:14:58.094Z,1006.85
2017-10-22T18:15:58.110Z,1006.81
2017-10-22T18:16:58.110Z,1006.87
2017-10-22T18:17:58.115Z,1006.88
2017-10-22T18:18:58.135Z,1006.86
2017-10-22T18:19:58.130Z,1006.84
2017-10-22T18:20:58.134Z,1006.95
2017-10-22T18:21:58.139Z,1006.91
2017-10-22T18:22:58.229Z,1006.93
2017-10-22T18:23:58.156Z,1006.92
2017-10-22T18:24:58.240Z,1006.97
2017-10-22T18:25:58.172Z,1006.96
2017-10-22T18:26:58.180Z,1007.00
2017-10-22T18:27:58.194Z,1006.98
2017-10-22T18:28:58.193Z,1006.99
2017-10-22T18:29:58.275Z,1007.00
2017-10-22T18:30:58.205Z,1007.00
2017-10-22T18:31:58.219Z,1006.95
2017-10-22T18:32:58.224Z,1007.01
2017-10-22T18:33:58.228Z,1007.01
2017-10-22T18:34:58.242Z,1007.01
2017-10-22T18:35:58.247Z,1006.97
2017-10-22T18:36:58.252Z,1006.99
2017-10-22T18:37:58.260Z,1007.00
2017-10-22T18:38:58.268Z,1007.00
2017-10-22T18:39:58.334Z,1006.95
2017-10-22T18:40:58.285Z,1007.00
2017-10-22T18:41:58.291Z,1006.98
2017-10-22T18:42:58.294Z,1006.97
2017-10-22T18:43:58.372Z,1006.99
2017-10-22T18:44:58.311Z,1006.98
2017-10-22T18:45:58.384Z,1006.99
2017-10-22T18:46:58.327Z,1007.00
2017-10-22T18:47:58.408Z,1006.99
2017-10-22T18:48:58.342Z,1007.05
2017-10-22T18:49:58.410Z,1007.03
2017-10-22T18:50:58.349Z,1007.02
2017-10-22T18:51:58.425Z,1007.08
2017-10-22T18:52:58.369Z,1007.12
2017-10-22T18:53:58.438Z,1007.16
2017-10-22T18:54:58.384Z,1007.08
2017-10-22T18:55:58.389Z,1007.11
2017-10-22T18:56:58.695Z,1007.13
2017-10-22T18:57:58.467Z,1007.10
2017-10-22T18:58:58.406Z,1007.13
2017-10-22T18:59:58.487Z,1007.11
2017-10-22T19:00:58.426Z,1007.13
2017-10-22T19:01:58.492Z,1007.16
2017-10-22T19:02:58.435Z,1007.15
2017-10-22T19:03:58.445Z,1007.16
2017-10-22T19:04:58.452Z,1007.19
2017-10-22T19:05:58.527Z,1007.23
2017-10-22T19:06:58.465Z,1007.18
2017-10-22T19:07:58.474Z,1007.16
2017-10-22T19:08:58.547Z,1007.20
2017-10-22T19:09:58.504Z,1007.23
2017-10-22T19:10:58.561Z,1007.20
2017-10-22T19:11:58.503Z,1007.20
2017-10-22T19:12:58.574Z,1007.20
2017-10-22T19:13:58.529Z,1007.18
2017-10-22T19:14:58.589Z,1007.14
2017-10-22T19:15:58.531Z,1007.20
2017-10-22T19:16:58.603Z,1007.15
2017-10-22T19:17:58.556Z,1007.20
2017-10-22T19:18:58.614Z,1007.19
2017-10-22T19:19:58.577Z,1007.25
2017-10-22T19:20:58.625Z,1007.22
2017-10-22T19:21:58.580Z,1007.23
2017-10-22T19:22:58.647Z,1007.24
2017-10-22T19:23:58.597Z,1007.23
2017-10-22T19:24:58.652Z,1007.27
2017-10-22T19:25:58.610Z,1007.26
2017-10-22T19:26:58.665Z,1007.21
2017-10-22T19:27:58.635Z,1007.23
2017-10-22T19:28:58.682Z,1007.27
2017-10-22T19:29:58.636Z,1007.26
2017-10-22T19:30:58.692Z,1007.24
2017-10-22T19:31:58.647Z,1007.29
2017-10-22T19:32:58.707Z,1007.26
2017-10-22T19:33:58.660Z,1007.28
2017-10-22T19:34:58.726Z,1007.30
2017-10-22T19:35:58.674Z,1007.29
2017-10-22T19:36:58.736Z,1007.32
2017-10-22T19:37:58.688Z,1007.29
2017-10-22T19:38:58.746Z,1007.32
2017-10-22T19:39:58.703Z,1007.34
2017-10-22T19:40:58.712Z,1007.34
2017-10-22T19:41:58.718Z,1007.35
2017-10-22T19:42:58.722Z,1007.27
2017-10-22T19:43:58.732Z,1007.34
2017-10-22T19:44:58.791Z,1007.31
2017-10-22T19:45:58.768Z,1007.35
2017-10-22T19:46:58.797Z,1007.33
2017-10-22T19:47:58.753Z,1007.36
2017-10-22T19:48:58.813Z,1007.36
2017-10-22T19:49:58.775Z,1007.42
2017-10-22T19:50:58.827Z,1007.39
2017-10-22T19:51:58.786Z,1007.40
2017-10-22T19:52:58.795Z,1007.39
2017-10-22T19:53:58.799Z,1007.41
2017-10-22T19:54:58.812Z,1007.37
2017-10-22T19:55:58.859Z,1007.42
2017-10-22T19:56:58.822Z,1007.46
2017-10-22T19:57:58.833Z,1007.44
2017-10-22T19:58:58.836Z,1007.46
2017-10-22T19:59:58.845Z,1007.41
2017-10-22T20:00:58.895Z,1007.45
2017-10-22T20:01:58.858Z,1007.45
2017-10-22T20:02:58.961Z,1007.45
2017-10-22T20:03:58.873Z,1007.44
2017-10-22T20:04:58.972Z,1007.49
2017-10-22T20:05:58.891Z,1007.48
2017-10-22T20:06:58.979Z,1007.48
2017-10-22T20:07:58.900Z,1007.53
2017-10-22T20:08:58.999Z,1007.45
2017-10-22T20:09:58.937Z,1007.47
2017-10-22T20:10:59.010Z,1007.51
2017-10-22T20:11:58.928Z,1007.54
2017-10-22T20:12:59.027Z,1007.53
2017-10-22T20:13:58.946Z,1007.54
2017-10-22T20:14:58.948Z,1007.54
2017-10-22T20:15:58.954Z,1007.48
2017-10-22T20:16:58.965Z,1007.51
2017-10-22T20:17:59.059Z,1007.53
2017-10-22T20:18:59.015Z,1007.51
2017-10-22T20:19:59.074Z,1007.49
2017-10-22T20:20:58.990Z,1007.52
2017-10-22T20:21:59.103Z,1007.53
2017-10-22T20:22:59.004Z,1007.48
2017-10-22T20:23:59.013Z,1007.50
2017-10-22T20:24:59.019Z,1007.49
2017-10-22T20:25:59.027Z,1007.51
2017-10-22T20:26:59.116Z,1007.52
2017-10-22T20:27:59.045Z,1007.50
2017-10-22T20:28:59.048Z,1007.53
2017-10-22T20:29:59.057Z,1007.57
2017-10-22T20:30:59.148Z,1007.54
2017-10-22T20:31:59.070Z,1007.63
2017-10-22T20:32:59.159Z,1007.52
2017-10-22T20:33:59.091Z,1007.59
2017-10-22T20:34:59.366Z,1007.59
2017-10-22T20:35:59.101Z,1007.61
2017-10-22T20:36:59.110Z,1007.60
2017-10-22T20:37:59.117Z,1007.59
2017-10-22T20:38:59.121Z,1007.60
2017-10-22T20:39:59.132Z,1007.65
2017-10-22T20:40:59.138Z,1007.58
2017-10-22T20:41:59.144Z,1007.63
2017-10-22T20:42:59.152Z,1007.59
2017-10-22T20:43:59.157Z,1007.62
2017-10-22T20:44:59.175Z,1007.61
2017-10-22T20:45:59.171Z,1007.64
2017-10-22T20:46:59.177Z,1007.66
2017-10-22T20:47:59.181Z,1007.72
2017-10-22T20:48:59.187Z,1007.67
2017-10-22T20:49:59.199Z,1007.73
2017-10-22T20:50:59.207Z,1007.69
2017-10-22T20:51:59.213Z,1007.71
2017-10-22T20:52:59.259Z,1007.72
2017-10-22T20:53:59.314Z,1007.77
2017-10-22T20:54:59.231Z,1007.73
2017-10-22T20:55:59.313Z,1007.76
2017-10-22T20:56:59.242Z,1007.76
2017-10-22T20:57:59.254Z,1007.83
2017-10-22T20:58:59.257Z,1007.73
2017-10-22T20:59:59.264Z,1007.72
2017-10-22T21:00:59.273Z,1007.79
2017-10-22T21:01:59.280Z,1007.77
2017-10-22T21:02:59.285Z,1007.81
2017-10-22T21:03:59.291Z,1007.81
2017-10-22T21:04:59.299Z,1007.79
2017-10-22T21:05:59.305Z,1007.79
2017-10-22T21:06:59.312Z,1007.83
2017-10-22T21:07:59.319Z,1007.82
2017-10-22T21:08:59.331Z,1007.86
2017-10-22T21:09:59.339Z,1007.83
2017-10-22T21:10:59.344Z,1007.84
2017-10-22T21:11:59.360Z,1007.87
2017-10-22T21:12:59.357Z,1007.85
2017-10-22T21:13:59.363Z,1007.85
2017-10-22T21:14:59.369Z,1007.85
2017-10-22T21:15:59.378Z,1007.88
2017-10-22T21:16:59.455Z,1007.85
2017-10-22T21:17:59.391Z,1007.83
2017-10-22T21:18:59.473Z,1007.85
2017-10-22T21:19:59.410Z,1007.87
2017-10-22T21:20:59.489Z,1007.81
2017-10-22T21:21:59.426Z,1007.83
2017-10-22T21:22:59.430Z,1007.83
2017-10-22T21:23:59.438Z,1007.87
2017-10-22T21:24:59.446Z,1007.84
2017-10-22T21:25:59.450Z,1007.91
2017-10-22T21:26:59.456Z,1007.85
2017-10-22T21:27:59.463Z,1007.84
2017-10-22T21:28:59.470Z,1007.88
2017-10-22T21:29:59.477Z,1007.90
2017-10-22T21:30:59.551Z,1007.86
2017-10-22T21:31:59.490Z,1007.94
2017-10-22T21:32:59.569Z,1007.89
2017-10-22T21:33:59.514Z,1007.92
2017-10-22T21:34:59.510Z,1007.90
2017-10-22T21:35:59.534Z,1007.94
2017-10-22T21:36:59.523Z,1007.96
2017-10-22T21:37:59.528Z,1007.90
2017-10-22T21:38:59.535Z,1007.97
2017-10-22T21:39:59.542Z,1007.98
2017-10-22T21:40:59.550Z,1007.92
2017-10-22T21:41:59.557Z,1007.93
2017-10-22T21:42:59.566Z,1007.91
2017-10-22T21:43:59.570Z,1007.94
2017-10-22T21:44:59.580Z,1007.91
2017-10-22T21:45:59.648Z,1007.97
2017-10-22T21:46:59.592Z,1007.95
2017-10-22T21:47:59.623Z,1007.89
2017-10-22T21:48:59.604Z,1007.88
2017-10-22T21:49:59.637Z,1007.86
2017-10-22T21:50:59.620Z,1007.88
2017-10-22T21:51:59.649Z,1007.87
2017-10-22T21:52:59.632Z,1007.84
2017-10-22T21:53:59.662Z,1007.87
2017-10-22T21:54:59.651Z,1007.91
2017-10-22T21:55:59.654Z,1007.88
2017-10-22T21:56:59.684Z,1007.90
2017-10-22T21:57:59.671Z,1007.91
2017-10-22T21:58:59.695Z,1007.94
2017-10-22T21:59:59.684Z,1007.93
2017-10-22T22:00:59.712Z,1007.93
2017-10-22T22:01:59.697Z,1007.89
2017-10-22T22:02:59.719Z,1007.91
2017-10-22T22:03:59.712Z,1007.92
2017-10-22T22:04:59.745Z,1007.86
2017-10-22T22:05:59.724Z,1007.94
2017-10-22T22:06:59.750Z,1007.94
2017-10-22T22:07:59.739Z,1007.95
2017-10-22T22:08:59.764Z,1007.91
2017-10-22T22:09:59.753Z,1007.94
2017-10-22T22:10:59.774Z,1007.96
2017-10-22T22:11:59.765Z,1007.92
2017-10-22T22:12:59.812Z,1007.95
2017-10-22T22:13:59.780Z,1007.94
2017-10-22T22:14:59.784Z,1007.96
2017-10-22T22:15:59.792Z,1007.97
2017-10-22T22:16:59.800Z,1007.99
2017-10-22T22:17:59.805Z,1007.95
2017-10-22T22:18:59.814Z,1007.96
2017-10-22T22:19:59.819Z,1007.97
2017-10-22T22:20:59.847Z,1007.99
2017-10-22T22:21:59.836Z,1007.95
2017-10-22T22:22:59.861Z,1007.98
2017-10-22T22:23:59.847Z,1007.98
2017-10-22T22:24:59.886Z,1007.94
2017-10-22T22:25:59.860Z,1008.00
2017-10-22T22:26:59.887Z,1008.00
2017-10-22T22:27:59.883Z,1007.97
2017-10-22T22:28:59.904Z,1008.02
2017-10-22T22:29:59.891Z,1008.01
2017-10-22T22:30:59.918Z,1008.08
2017-10-22T22:31:59.908Z,1008.05
2017-10-22T22:32:59.930Z,1007.98
2017-10-22T22:33:59.923Z,1008.03
2017-10-22T22:34:59.949Z,1008.04
2017-10-22T22:35:59.934Z,1007.99
2017-10-22T22:36:59.957Z,1008.07
2017-10-22T22:37:59.943Z,1008.03
2017-10-22T22:38:59.970Z,1008.05
2017-10-22T22:39:59.958Z,1008.02
2017-10-22T22:40:59.992Z,1007.98
2017-10-22T22:42:00.022Z,1007.98
2017-10-22T22:43:00.013Z,1008.00
2017-10-22T22:43:59.989Z,1007.99
2017-10-22T22:45:00.017Z,1007.97
2017-10-22T22:46:00.002Z,1007.94
2017-10-22T22:47:00.032Z,1007.94
2017-10-22T22:48:00.022Z,1007.92
2017-10-22T22:49:00.039Z,1007.94
2017-10-22T22:50:00.035Z,1007.93
2017-10-22T22:51:00.078Z,1007.95
2017-10-22T22:52:00.042Z,1007.93
2017-10-22T22:53:00.072Z,1007.96
2017-10-22T22:54:00.069Z,1007.97
2017-10-22T22:55:00.083Z,1007.97
2017-10-22T22:56:00.062Z,1007.94
2017-10-22T22:57:00.092Z,1007.92
2017-10-22T22:58:00.086Z,1007.96
2017-10-22T22:59:00.101Z,1007.91
2017-10-22T23:00:00.095Z,1008.01
2017-10-22T23:01:00.137Z,1007.97
2017-10-22T23:02:00.108Z,1007.98
2017-10-22T23:03:00.147Z,1007.95
2017-10-22T23:04:00.138Z,1007.99
2017-10-22T23:05:00.150Z,1007.97
2017-10-22T23:06:00.135Z,1007.99
2017-10-22T23:07:00.156Z,1008.01
2017-10-22T23:08:00.150Z,1008.01
2017-10-22T23:09:00.170Z,1007.99
2017-10-22T23:10:00.168Z,1008.00
2017-10-22T23:11:00.189Z,1008.06
2017-10-22T23:12:00.174Z,1008.00
2017-10-22T23:13:00.197Z,1008.01
2017-10-22T23:14:00.191Z,1008.02
2017-10-22T23:15:00.211Z,1008.08
2017-10-22T23:16:00.205Z,1008.00
2017-10-22T23:17:00.225Z,1008.03
2017-10-22T23:18:00.216Z,1008.01
2017-10-22T23:19:00.238Z,1007.98
2017-10-22T23:20:00.230Z,1008.06
2017-10-22T23:21:00.260Z,1007.99
2017-10-22T23:22:00.253Z,1008.02
2017-10-22T23:23:00.273Z,1008.00
2017-10-22T23:24:00.258Z,1008.04
2017-10-22T23:25:00.285Z,1008.04
2017-10-22T23:26:00.276Z,1008.05
2017-10-22T23:27:00.299Z,1008.08
2017-10-22T23:28:00.287Z,1008.02
2017-10-22T23:29:00.315Z,1008.05
2017-10-22T23:30:00.307Z,1008.05
2017-10-22T23:31:00.317Z,1007.99
2017-10-22T23:32:00.316Z,1008.03
2017-10-22T23:33:00.331Z,1008.02
2017-10-22T23:34:00.328Z,1008.02
2017-10-22T23:35:00.350Z,1008.05
2017-10-22T23:36:00.340Z,1008.01
2017-10-22T23:37:01.389Z,1008.03
2017-10-22T23:38:00.352Z,1008.05
2017-10-22T23:39:00.385Z,1008.03
2017-10-22T23:40:00.366Z,1008.03
2017-10-22T23:41:00.392Z,1008.02
2017-10-22T23:42:00.379Z,1008.02
2017-10-22T23:43:00.406Z,1008.02
2017-10-22T23:44:00.391Z,1007.99
2017-10-22T23:45:00.422Z,1008.02
2017-10-22T23:46:00.408Z,1008.02
2017-10-22T23:47:00.430Z,1008.00
2017-10-22T23:48:00.422Z,1008.05
2017-10-22T23:49:00.445Z,1008.05
2017-10-22T23:50:00.433Z,1008.03
2017-10-22T23:51:00.563Z,1008.04
2017-10-22T23:52:00.448Z,1008.02
2017-10-22T23:53:01.594Z,1008.06
2017-10-22T23:54:00.464Z,1008.05
2017-10-22T23:55:00.485Z,1008.04
2017-10-22T23:56:00.477Z,1008.01
2017-10-22T23:57:00.603Z,1008.04
2017-10-22T23:58:00.487Z,1008.04
2017-10-22T23:59:00.515Z,1008.09
